sensor_id;sensor_type;location;lat;lon;timestamp;P1;durP1;ratioP1;P2;durP2;ratioP2
2462;SDS011;1243;54.298;10.172;2023-02-20T00:01:13;4.87;;;2.63;;
2462;SDS011;1243;54.298;10.172;2023-02-20T00:03:39;7.07;;;3.23;;
2462;SDS011;1243;54.298;10.172;2023-02-20T00:06:05;10.03;;;2.70;;
2462;SDS011;1243;54.298;10.172;2023-02-20T00:08:30;9.27;;;3.27;;
2462;SDS011;1243;54.298;10.172;2023-02-20T00:10:56;9.10;;;3.10;;
2462;SDS011;1243;54.298;10.172;2023-02-20T00:13:22;5.53;;;2.87;;
2462;SDS011;1243;54.298;10.172;2023-02-20T00:15:47;7.60;;;3.70;;
2462;SDS011;1243;54.298;10.172;2023-02-20T00:18:13;5.80;;;3.70;;
2462;SDS011;1243;54.298;10.172;2023-02-20T00:20:39;6.17;;;3.07;;
2462;SDS011;1243;54.298;10.172;2023-02-20T00:23:05;3.83;;;3.10;;
2462;SDS011;1243;54.298;10.172;2023-02-20T00:25:30;2.83;;;2.63;;
2462;SDS011;1243;54.298;10.172;2023-02-20T00:27:56;3.70;;;3.40;;
2462;SDS011;1243;54.298;10.172;2023-02-20T00:30:22;7.00;;;4.03;;
2462;SDS011;1243;54.298;10.172;2023-02-20T00:32:49;3.70;;;3.30;;
2462;SDS011;1243;54.298;10.172;2023-02-20T00:35:18;4.90;;;3.40;;
2462;SDS011;1243;54.298;10.172;2023-02-20T00:37:44;5.50;;;4.27;;
2462;SDS011;1243;54.298;10.172;2023-02-20T00:40:14;9.10;;;3.90;;
2462;SDS011;1243;54.298;10.172;2023-02-20T00:42:40;7.53;;;4.90;;
2462;SDS011;1243;54.298;10.172;2023-02-20T00:45:06;8.23;;;4.00;;
2462;SDS011;1243;54.298;10.172;2023-02-20T00:47:33;5.00;;;4.07;;
2462;SDS011;1243;54.298;10.172;2023-02-20T00:49:58;6.70;;;3.97;;
2462;SDS011;1243;54.298;10.172;2023-02-20T00:52:24;4.97;;;4.47;;
2462;SDS011;1243;54.298;10.172;2023-02-20T00:54:50;5.57;;;4.07;;
2462;SDS011;1243;54.298;10.172;2023-02-20T00:57:16;4.13;;;3.83;;
2462;SDS011;1243;54.298;10.172;2023-02-20T00:59:42;4.47;;;4.07;;
2462;SDS011;1243;54.298;10.172;2023-02-20T01:02:07;4.20;;;3.87;;
2462;SDS011;1243;54.298;10.172;2023-02-20T01:04:33;5.03;;;3.70;;
2462;SDS011;1243;54.298;10.172;2023-02-20T01:06:59;7.17;;;3.77;;
2462;SDS011;1243;54.298;10.172;2023-02-20T01:09:24;6.40;;;4.83;;
2462;SDS011;1243;54.298;10.172;2023-02-20T01:11:52;3.53;;;3.23;;
2462;SDS011;1243;54.298;10.172;2023-02-20T01:14:18;4.80;;;3.60;;
2462;SDS011;1243;54.298;10.172;2023-02-20T01:16:44;2.80;;;2.60;;
2462;SDS011;1243;54.298;10.172;2023-02-20T01:19:11;4.17;;;3.33;;
2462;SDS011;1243;54.298;10.172;2023-02-20T01:21:37;4.50;;;3.17;;
2462;SDS011;1243;54.298;10.172;2023-02-20T01:24:03;5.37;;;3.43;;
2462;SDS011;1243;54.298;10.172;2023-02-20T01:26:28;4.00;;;3.70;;
2462;SDS011;1243;54.298;10.172;2023-02-20T01:28:54;4.03;;;3.63;;
2462;SDS011;1243;54.298;10.172;2023-02-20T01:31:20;5.90;;;3.77;;
2462;SDS011;1243;54.298;10.172;2023-02-20T01:33:46;5.10;;;3.90;;
2462;SDS011;1243;54.298;10.172;2023-02-20T01:36:11;4.53;;;3.50;;
2462;SDS011;1243;54.298;10.172;2023-02-20T01:38:40;9.63;;;4.03;;
2462;SDS011;1243;54.298;10.172;2023-02-20T01:41:06;6.13;;;3.90;;
2462;SDS011;1243;54.298;10.172;2023-02-20T01:43:33;7.20;;;4.17;;
2462;SDS011;1243;54.298;10.172;2023-02-20T01:49:00;4.73;;;4.27;;
2462;SDS011;1243;54.298;10.172;2023-02-20T01:51:27;4.20;;;3.70;;
2462;SDS011;1243;54.298;10.172;2023-02-20T01:53:58;5.00;;;3.80;;
2462;SDS011;1243;54.298;10.172;2023-02-20T01:56:23;6.30;;;3.90;;
2462;SDS011;1243;54.298;10.172;2023-02-20T01:58:49;4.27;;;3.70;;
2462;SDS011;1243;54.298;10.172;2023-02-20T02:01:15;5.33;;;4.83;;
2462;SDS011;1243;54.298;10.172;2023-02-20T02:03:42;5.77;;;4.10;;
2462;SDS011;1243;54.298;10.172;2023-02-20T02:06:12;8.83;;;4.67;;
2462;SDS011;1243;54.298;10.172;2023-02-20T02:08:40;5.90;;;3.93;;
2462;SDS011;1243;54.298;10.172;2023-02-20T02:11:13;4.00;;;3.60;;
2462;SDS011;1243;54.298;10.172;2023-02-20T02:13:42;6.60;;;4.67;;
2462;SDS011;1243;54.298;10.172;2023-02-20T02:19:04;4.80;;;4.17;;
2462;SDS011;1243;54.298;10.172;2023-02-20T02:44:55;4.20;;;3.43;;
2462;SDS011;1243;54.298;10.172;2023-02-20T02:47:04;4.97;;;3.77;;
2462;SDS011;1243;54.298;10.172;2023-02-20T02:52:32;5.43;;;4.83;;
2462;SDS011;1243;54.298;10.172;2023-02-20T02:55:06;5.20;;;4.60;;
2462;SDS011;1243;54.298;10.172;2023-02-20T02:57:33;11.10;;;4.70;;
2462;SDS011;1243;54.298;10.172;2023-02-20T03:00:18;5.77;;;3.67;;
2462;SDS011;1243;54.298;10.172;2023-02-20T03:02:55;5.83;;;4.80;;
2462;SDS011;1243;54.298;10.172;2023-02-20T03:05:28;7.13;;;4.50;;
2462;SDS011;1243;54.298;10.172;2023-02-20T03:08:14;4.70;;;4.20;;
2462;SDS011;1243;54.298;10.172;2023-02-20T03:10:55;5.70;;;4.37;;
2462;SDS011;1243;54.298;10.172;2023-02-20T03:13:25;6.80;;;4.20;;
2462;SDS011;1243;54.298;10.172;2023-02-20T03:16:14;5.07;;;4.57;;
2462;SDS011;1243;54.298;10.172;2023-02-20T03:18:43;5.63;;;4.40;;
2462;SDS011;1243;54.298;10.172;2023-02-20T03:21:13;6.60;;;4.60;;
2462;SDS011;1243;54.298;10.172;2023-02-20T03:23:43;5.43;;;4.53;;
2462;SDS011;1243;54.298;10.172;2023-02-20T03:26:14;7.90;;;5.70;;
2462;SDS011;1243;54.298;10.172;2023-02-20T03:28:47;14.43;;;5.27;;
2462;SDS011;1243;54.298;10.172;2023-02-20T03:31:47;9.50;;;4.70;;
2462;SDS011;1243;54.298;10.172;2023-02-20T03:34:35;8.13;;;6.03;;
2462;SDS011;1243;54.298;10.172;2023-02-20T03:37:22;8.60;;;5.97;;
2462;SDS011;1243;54.298;10.172;2023-02-20T03:40:11;6.50;;;4.87;;
2462;SDS011;1243;54.298;10.172;2023-02-20T03:42:59;6.03;;;5.53;;
2462;SDS011;1243;54.298;10.172;2023-02-20T03:45:45;14.30;;;5.77;;
2462;SDS011;1243;54.298;10.172;2023-02-20T03:48:23;9.10;;;6.53;;
2462;SDS011;1243;54.298;10.172;2023-02-20T03:51:00;11.53;;;6.47;;
2462;SDS011;1243;54.298;10.172;2023-02-20T03:53:38;9.73;;;6.60;;
2462;SDS011;1243;54.298;10.172;2023-02-20T03:56:08;6.43;;;5.83;;
2462;SDS011;1243;54.298;10.172;2023-02-20T03:58:39;13.70;;;6.50;;
2462;SDS011;1243;54.298;10.172;2023-02-20T04:01:09;8.90;;;6.97;;
2462;SDS011;1243;54.298;10.172;2023-02-20T04:03:40;9.87;;;5.87;;
2462;SDS011;1243;54.298;10.172;2023-02-20T04:06:10;13.67;;;8.27;;
2462;SDS011;1243;54.298;10.172;2023-02-20T04:08:41;16.17;;;8.67;;
2462;SDS011;1243;54.298;10.172;2023-02-20T04:11:28;11.07;;;8.10;;
2462;SDS011;1243;54.298;10.172;2023-02-20T04:14:16;18.73;;;6.97;;
2462;SDS011;1243;54.298;10.172;2023-02-20T04:16:46;19.83;;;7.90;;
2462;SDS011;1243;54.298;10.172;2023-02-20T04:19:15;12.27;;;7.60;;
2462;SDS011;1243;54.298;10.172;2023-02-20T04:21:45;11.60;;;8.33;;
2462;SDS011;1243;54.298;10.172;2023-02-20T04:24:23;12.50;;;6.53;;
2462;SDS011;1243;54.298;10.172;2023-02-20T04:26:58;15.87;;;9.23;;
2462;SDS011;1243;54.298;10.172;2023-02-20T04:29:24;14.17;;;7.03;;
2462;SDS011;1243;54.298;10.172;2023-02-20T04:31:50;18.20;;;8.13;;
2462;SDS011;1243;54.298;10.172;2023-02-20T04:34:16;22.30;;;9.50;;
2462;SDS011;1243;54.298;10.172;2023-02-20T04:36:42;8.70;;;7.80;;
2462;SDS011;1243;54.298;10.172;2023-02-20T04:39:07;15.73;;;7.20;;
2462;SDS011;1243;54.298;10.172;2023-02-20T04:41:33;9.47;;;5.63;;
2462;SDS011;1243;54.298;10.172;2023-02-20T04:43:59;17.50;;;9.50;;
2462;SDS011;1243;54.298;10.172;2023-02-20T04:46:43;8.03;;;7.23;;
2462;SDS011;1243;54.298;10.172;2023-02-20T04:49:09;12.60;;;8.03;;
2462;SDS011;1243;54.298;10.172;2023-02-20T04:51:35;21.27;;;10.50;;
2462;SDS011;1243;54.298;10.172;2023-02-20T04:54:00;10.93;;;8.47;;
2462;SDS011;1243;54.298;10.172;2023-02-20T04:56:26;12.43;;;6.90;;
2462;SDS011;1243;54.298;10.172;2023-02-20T04:58:52;16.20;;;9.60;;
2462;SDS011;1243;54.298;10.172;2023-02-20T05:01:17;18.43;;;10.33;;
2462;SDS011;1243;54.298;10.172;2023-02-20T05:03:43;14.50;;;9.67;;
2462;SDS011;1243;54.298;10.172;2023-02-20T05:06:09;18.90;;;10.37;;
2462;SDS011;1243;54.298;10.172;2023-02-20T05:08:35;18.50;;;9.00;;
2462;SDS011;1243;54.298;10.172;2023-02-20T05:11:00;24.63;;;8.83;;
2462;SDS011;1243;54.298;10.172;2023-02-20T05:13:26;14.43;;;8.60;;
2462;SDS011;1243;54.298;10.172;2023-02-20T05:15:52;17.73;;;9.60;;
2462;SDS011;1243;54.298;10.172;2023-02-20T05:18:24;19.23;;;9.90;;
2462;SDS011;1243;54.298;10.172;2023-02-20T05:20:53;19.20;;;11.07;;
2462;SDS011;1243;54.298;10.172;2023-02-20T05:23:37;15.00;;;9.20;;
2462;SDS011;1243;54.298;10.172;2023-02-20T05:26:07;14.67;;;8.50;;
2462;SDS011;1243;54.298;10.172;2023-02-20T05:28:37;20.70;;;10.57;;
2462;SDS011;1243;54.298;10.172;2023-02-20T05:31:06;19.87;;;11.90;;
2462;SDS011;1243;54.298;10.172;2023-02-20T05:33:32;17.57;;;9.70;;
2462;SDS011;1243;54.298;10.172;2023-02-20T05:35:58;22.13;;;10.23;;
2462;SDS011;1243;54.298;10.172;2023-02-20T05:38:24;14.33;;;8.17;;
2462;SDS011;1243;54.298;10.172;2023-02-20T05:40:50;18.80;;;10.03;;
2462;SDS011;1243;54.298;10.172;2023-02-20T05:43:16;18.90;;;12.23;;
2462;SDS011;1243;54.298;10.172;2023-02-20T05:45:42;20.03;;;11.30;;
2462;SDS011;1243;54.298;10.172;2023-02-20T05:48:10;15.97;;;10.73;;
2462;SDS011;1243;54.298;10.172;2023-02-20T05:50:36;22.70;;;8.90;;
2462;SDS011;1243;54.298;10.172;2023-02-20T05:53:02;18.00;;;10.90;;
2462;SDS011;1243;54.298;10.172;2023-02-20T05:55:28;16.50;;;12.20;;
2462;SDS011;1243;54.298;10.172;2023-02-20T05:57:55;26.27;;;11.77;;
2462;SDS011;1243;54.298;10.172;2023-02-20T06:00:21;19.93;;;12.20;;
2462;SDS011;1243;54.298;10.172;2023-02-20T06:02:47;18.70;;;11.17;;
2462;SDS011;1243;54.298;10.172;2023-02-20T06:05:13;24.88;;;12.70;;
2462;SDS011;1243;54.298;10.172;2023-02-20T06:07:39;22.40;;;11.53;;
2462;SDS011;1243;54.298;10.172;2023-02-20T06:10:06;21.77;;;12.20;;
2462;SDS011;1243;54.298;10.172;2023-02-20T06:12:32;14.87;;;9.87;;
2462;SDS011;1243;54.298;10.172;2023-02-20T06:14:58;15.80;;;9.33;;
2462;SDS011;1243;54.298;10.172;2023-02-20T06:17:24;22.63;;;12.00;;
2462;SDS011;1243;54.298;10.172;2023-02-20T06:19:50;18.50;;;12.60;;
2462;SDS011;1243;54.298;10.172;2023-02-20T06:22:16;13.27;;;9.73;;
2462;SDS011;1243;54.298;10.172;2023-02-20T06:24:45;13.80;;;10.17;;
2462;SDS011;1243;54.298;10.172;2023-02-20T06:27:12;18.50;;;9.80;;
2462;SDS011;1243;54.298;10.172;2023-02-20T06:29:38;23.97;;;11.93;;
2462;SDS011;1243;54.298;10.172;2023-02-20T06:32:04;18.90;;;9.77;;
2462;SDS011;1243;54.298;10.172;2023-02-20T06:34:30;20.00;;;11.30;;
2462;SDS011;1243;54.298;10.172;2023-02-20T06:36:57;21.03;;;13.27;;
2462;SDS011;1243;54.298;10.172;2023-02-20T06:39:27;21.43;;;13.20;;
2462;SDS011;1243;54.298;10.172;2023-02-20T06:41:53;10.60;;;8.53;;
2462;SDS011;1243;54.298;10.172;2023-02-20T06:44:19;21.87;;;11.70;;
2462;SDS011;1243;54.298;10.172;2023-02-20T06:46:45;15.73;;;9.83;;
2462;SDS011;1243;54.298;10.172;2023-02-20T06:49:11;15.37;;;9.10;;
2462;SDS011;1243;54.298;10.172;2023-02-20T06:51:36;17.00;;;9.97;;
2462;SDS011;1243;54.298;10.172;2023-02-20T06:54:04;20.80;;;11.80;;
2462;SDS011;1243;54.298;10.172;2023-02-20T06:56:31;19.90;;;11.43;;
2462;SDS011;1243;54.298;10.172;2023-02-20T06:58:58;14.50;;;10.73;;
2462;SDS011;1243;54.298;10.172;2023-02-20T07:01:26;18.73;;;9.57;;
2462;SDS011;1243;54.298;10.172;2023-02-20T07:03:53;14.83;;;9.10;;
2462;SDS011;1243;54.298;10.172;2023-02-20T07:06:20;19.23;;;11.23;;
2462;SDS011;1243;54.298;10.172;2023-02-20T07:08:47;17.93;;;9.33;;
2462;SDS011;1243;54.298;10.172;2023-02-20T07:11:13;17.07;;;9.50;;
2462;SDS011;1243;54.298;10.172;2023-02-20T07:13:40;20.57;;;9.97;;
2462;SDS011;1243;54.298;10.172;2023-02-20T07:16:06;16.83;;;9.83;;
2462;SDS011;1243;54.298;10.172;2023-02-20T07:18:32;19.13;;;11.40;;
2462;SDS011;1243;54.298;10.172;2023-02-20T07:20:58;19.63;;;11.77;;
2462;SDS011;1243;54.298;10.172;2023-02-20T07:23:23;17.83;;;9.60;;
2462;SDS011;1243;54.298;10.172;2023-02-20T07:25:49;21.97;;;10.43;;
2462;SDS011;1243;54.298;10.172;2023-02-20T07:28:15;22.10;;;10.77;;
2462;SDS011;1243;54.298;10.172;2023-02-20T07:30:43;16.00;;;10.50;;
2462;SDS011;1243;54.298;10.172;2023-02-20T07:33:09;14.37;;;10.10;;
2462;SDS011;1243;54.298;10.172;2023-02-20T07:35:35;16.17;;;7.40;;
2462;SDS011;1243;54.298;10.172;2023-02-20T07:38:00;13.53;;;9.37;;
2462;SDS011;1243;54.298;10.172;2023-02-20T07:40:26;23.67;;;11.07;;
2462;SDS011;1243;54.298;10.172;2023-02-20T07:42:52;13.17;;;9.00;;
2462;SDS011;1243;54.298;10.172;2023-02-20T07:45:18;13.40;;;9.63;;
2462;SDS011;1243;54.298;10.172;2023-02-20T07:47:43;17.53;;;10.20;;
2462;SDS011;1243;54.298;10.172;2023-02-20T07:50:09;16.47;;;9.93;;
2462;SDS011;1243;54.298;10.172;2023-02-20T07:52:35;13.93;;;8.47;;
2462;SDS011;1243;54.298;10.172;2023-02-20T07:55:01;25.20;;;9.80;;
2462;SDS011;1243;54.298;10.172;2023-02-20T07:57:26;20.27;;;11.10;;
2462;SDS011;1243;54.298;10.172;2023-02-20T07:59:53;15.87;;;10.23;;
2462;SDS011;1243;54.298;10.172;2023-02-20T08:02:19;13.53;;;7.33;;
2462;SDS011;1243;54.298;10.172;2023-02-20T08:04:45;14.20;;;8.50;;
2462;SDS011;1243;54.298;10.172;2023-02-20T08:07:10;10.10;;;7.13;;
2462;SDS011;1243;54.298;10.172;2023-02-20T08:09:36;18.93;;;9.20;;
2462;SDS011;1243;54.298;10.172;2023-02-20T08:12:02;11.53;;;8.50;;
2462;SDS011;1243;54.298;10.172;2023-02-20T08:14:27;18.17;;;9.10;;
2462;SDS011;1243;54.298;10.172;2023-02-20T08:16:55;14.57;;;8.03;;
2462;SDS011;1243;54.298;10.172;2023-02-20T08:19:21;14.30;;;7.90;;
2462;SDS011;1243;54.298;10.172;2023-02-20T08:21:46;16.70;;;9.07;;
2462;SDS011;1243;54.298;10.172;2023-02-20T08:24:12;14.40;;;8.30;;
2462;SDS011;1243;54.298;10.172;2023-02-20T08:26:44;19.83;;;8.83;;
2462;SDS011;1243;54.298;10.172;2023-02-20T08:29:11;23.10;;;10.20;;
2462;SDS011;1243;54.298;10.172;2023-02-20T08:31:37;19.77;;;9.40;;
2462;SDS011;1243;54.298;10.172;2023-02-20T08:34:03;24.00;;;9.83;;
2462;SDS011;1243;54.298;10.172;2023-02-20T08:36:29;16.67;;;9.60;;
2462;SDS011;1243;54.298;10.172;2023-02-20T08:38:55;12.13;;;9.80;;
2462;SDS011;1243;54.298;10.172;2023-02-20T08:41:21;24.70;;;11.90;;
2462;SDS011;1243;54.298;10.172;2023-02-20T08:43:47;23.80;;;11.77;;
2462;SDS011;1243;54.298;10.172;2023-02-20T08:46:13;22.70;;;13.00;;
2462;SDS011;1243;54.298;10.172;2023-02-20T08:48:39;25.73;;;10.30;;
2462;SDS011;1243;54.298;10.172;2023-02-20T08:51:05;20.70;;;10.60;;
2462;SDS011;1243;54.298;10.172;2023-02-20T08:53:31;18.07;;;11.60;;
2462;SDS011;1243;54.298;10.172;2023-02-20T08:55:58;21.13;;;11.10;;
2462;SDS011;1243;54.298;10.172;2023-02-20T08:58:24;28.77;;;11.23;;
2462;SDS011;1243;54.298;10.172;2023-02-20T09:00:50;14.10;;;9.60;;
2462;SDS011;1243;54.298;10.172;2023-02-20T09:03:16;17.20;;;10.23;;
2462;SDS011;1243;54.298;10.172;2023-02-20T09:05:43;19.30;;;9.50;;
2462;SDS011;1243;54.298;10.172;2023-02-20T09:08:09;17.40;;;9.70;;
2462;SDS011;1243;54.298;10.172;2023-02-20T09:10:35;16.77;;;8.50;;
2462;SDS011;1243;54.298;10.172;2023-02-20T09:13:01;22.93;;;9.73;;
2462;SDS011;1243;54.298;10.172;2023-02-20T09:15:27;18.40;;;8.97;;
2462;SDS011;1243;54.298;10.172;2023-02-20T09:17:53;25.13;;;9.93;;
2462;SDS011;1243;54.298;10.172;2023-02-20T09:20:20;22.93;;;8.50;;
2462;SDS011;1243;54.298;10.172;2023-02-20T09:22:47;18.83;;;9.00;;
2462;SDS011;1243;54.298;10.172;2023-02-20T09:25:14;18.13;;;10.57;;
2462;SDS011;1243;54.298;10.172;2023-02-20T09:27:41;27.83;;;10.47;;
2462;SDS011;1243;54.298;10.172;2023-02-20T09:30:07;20.00;;;9.10;;
2462;SDS011;1243;54.298;10.172;2023-02-20T09:32:33;22.33;;;7.90;;
2462;SDS011;1243;54.298;10.172;2023-02-20T09:34:58;16.90;;;7.10;;
2462;SDS011;1243;54.298;10.172;2023-02-20T09:37:24;13.43;;;6.40;;
2462;SDS011;1243;54.298;10.172;2023-02-20T09:39:50;8.70;;;6.80;;
2462;SDS011;1243;54.298;10.172;2023-02-20T09:51:16;10.20;;;5.13;;
2462;SDS011;1243;54.298;10.172;2023-02-20T09:53:19;6.13;;;4.87;;
2462;SDS011;1243;54.298;10.172;2023-02-20T09:55:48;15.43;;;5.07;;
2462;SDS011;1243;54.298;10.172;2023-02-20T10:00:54;21.63;;;5.87;;
2462;SDS011;1243;54.298;10.172;2023-02-20T10:03:26;21.60;;;5.50;;
2462;SDS011;1243;54.298;10.172;2023-02-20T10:06:20;9.47;;;4.40;;
2462;SDS011;1243;54.298;10.172;2023-02-20T10:08:49;20.03;;;5.80;;
2462;SDS011;1243;54.298;10.172;2023-02-20T10:11:26;9.03;;;4.83;;
2462;SDS011;1243;54.298;10.172;2023-02-20T10:16:52;13.53;;;5.67;;
2462;SDS011;1243;54.298;10.172;2023-02-20T10:19:46;9.67;;;4.90;;
2462;SDS011;1243;54.298;10.172;2023-02-20T10:27:43;14.23;;;6.40;;
2462;SDS011;1243;54.298;10.172;2023-02-20T10:30:26;12.67;;;5.33;;
2462;SDS011;1243;54.298;10.172;2023-02-20T10:38:39;17.03;;;5.97;;
2462;SDS011;1243;54.298;10.172;2023-02-20T10:41:31;9.60;;;4.73;;
2462;SDS011;1243;54.298;10.172;2023-02-20T10:52:30;13.00;;;4.70;;
2462;SDS011;1243;54.298;10.172;2023-02-20T10:55:10;9.20;;;5.00;;
2462;SDS011;1243;54.298;10.172;2023-02-20T10:57:42;14.23;;;5.13;;
2462;SDS011;1243;54.298;10.172;2023-02-20T11:00:19;10.17;;;4.73;;
2462;SDS011;1243;54.298;10.172;2023-02-20T11:02:54;9.50;;;5.30;;
2462;SDS011;1243;54.298;10.172;2023-02-20T11:05:27;14.10;;;4.90;;
2462;SDS011;1243;54.298;10.172;2023-02-20T11:07:55;18.97;;;6.00;;
2462;SDS011;1243;54.298;10.172;2023-02-20T11:10:21;16.83;;;4.83;;
2462;SDS011;1243;54.298;10.172;2023-02-20T11:12:50;26.00;;;5.20;;
2462;SDS011;1243;54.298;10.172;2023-02-20T11:15:19;11.20;;;3.63;;
2462;SDS011;1243;54.298;10.172;2023-02-20T11:17:52;12.17;;;5.43;;
2462;SDS011;1243;54.298;10.172;2023-02-20T11:20:40;15.67;;;5.10;;
2462;SDS011;1243;54.298;10.172;2023-02-20T11:23:06;20.53;;;5.43;;
2462;SDS011;1243;54.298;10.172;2023-02-20T11:25:35;12.70;;;4.63;;
2462;SDS011;1243;54.298;10.172;2023-02-20T11:30:47;15.37;;;5.53;;
2462;SDS011;1243;54.298;10.172;2023-02-20T11:38:47;13.87;;;4.90;;
2462;SDS011;1243;54.298;10.172;2023-02-20T11:42:03;11.00;;;4.50;;
2462;SDS011;1243;54.298;10.172;2023-02-20T11:44:22;13.83;;;3.50;;
2462;SDS011;1243;54.298;10.172;2023-02-20T11:47:07;9.93;;;3.70;;
2462;SDS011;1243;54.298;10.172;2023-02-20T11:49:45;8.77;;;4.33;;
2462;SDS011;1243;54.298;10.172;2023-02-20T11:54:42;20.20;;;5.87;;
2462;SDS011;1243;54.298;10.172;2023-02-20T11:59:40;13.33;;;3.73;;
2462;SDS011;1243;54.298;10.172;2023-02-20T12:02:29;14.70;;;4.97;;
2462;SDS011;1243;54.298;10.172;2023-02-20T12:07:27;16.87;;;6.60;;
2462;SDS011;1243;54.298;10.172;2023-02-20T12:10:03;15.93;;;5.97;;
2462;SDS011;1243;54.298;10.172;2023-02-20T12:12:55;13.40;;;4.00;;
2462;SDS011;1243;54.298;10.172;2023-02-20T12:15:22;13.70;;;4.03;;
2462;SDS011;1243;54.298;10.172;2023-02-20T12:20:20;10.00;;;4.17;;
2462;SDS011;1243;54.298;10.172;2023-02-20T12:29:07;14.37;;;3.67;;
2462;SDS011;1243;54.298;10.172;2023-02-20T12:43:04;23.80;;;3.87;;
2462;SDS011;1243;54.298;10.172;2023-02-20T12:48:16;10.33;;;3.40;;
2462;SDS011;1243;54.298;10.172;2023-02-20T12:57:20;15.33;;;4.67;;
2462;SDS011;1243;54.298;10.172;2023-02-20T12:59:59;16.27;;;4.53;;
2462;SDS011;1243;54.298;10.172;2023-02-20T13:02:40;13.87;;;4.10;;
2462;SDS011;1243;54.298;10.172;2023-02-20T13:05:11;19.93;;;4.70;;
2462;SDS011;1243;54.298;10.172;2023-02-20T13:07:55;12.53;;;4.03;;
2462;SDS011;1243;54.298;10.172;2023-02-20T13:10:23;6.47;;;3.83;;
2462;SDS011;1243;54.298;10.172;2023-02-20T13:12:52;9.93;;;3.30;;
2462;SDS011;1243;54.298;10.172;2023-02-20T13:16:02;19.73;;;5.53;;
2462;SDS011;1243;54.298;10.172;2023-02-20T13:21:14;14.47;;;4.20;;
2462;SDS011;1243;54.298;10.172;2023-02-20T13:23:41;11.33;;;3.93;;
2462;SDS011;1243;54.298;10.172;2023-02-20T13:26:42;10.47;;;4.30;;
2462;SDS011;1243;54.298;10.172;2023-02-20T13:29:15;15.90;;;4.23;;
2462;SDS011;1243;54.298;10.172;2023-02-20T13:31:56;13.63;;;4.77;;
2462;SDS011;1243;54.298;10.172;2023-02-20T13:34:32;14.73;;;4.33;;
2462;SDS011;1243;54.298;10.172;2023-02-20T13:37:04;7.43;;;3.40;;
2462;SDS011;1243;54.298;10.172;2023-02-20T13:45:37;8.40;;;3.83;;
2462;SDS011;1243;54.298;10.172;2023-02-20T13:56:54;10.77;;;3.90;;
2462;SDS011;1243;54.298;10.172;2023-02-20T13:59:25;17.33;;;4.70;;
2462;SDS011;1243;54.298;10.172;2023-02-20T14:02:12;9.13;;;3.87;;
2462;SDS011;1243;54.298;10.172;2023-02-20T14:04:58;9.80;;;4.07;;
2462;SDS011;1243;54.298;10.172;2023-02-20T14:07:37;5.97;;;3.70;;
2462;SDS011;1243;54.298;10.172;2023-02-20T14:12:39;8.13;;;3.23;;
2462;SDS011;1243;54.298;10.172;2023-02-20T14:15:05;13.77;;;4.93;;
2462;SDS011;1243;54.298;10.172;2023-02-20T14:17:32;11.90;;;4.90;;
2462;SDS011;1243;54.298;10.172;2023-02-20T14:20:04;11.90;;;4.30;;
2462;SDS011;1243;54.298;10.172;2023-02-20T14:22:39;15.73;;;3.70;;
2462;SDS011;1243;54.298;10.172;2023-02-20T14:27:46;10.50;;;5.10;;
2462;SDS011;1243;54.298;10.172;2023-02-20T14:32:54;10.63;;;3.60;;
2462;SDS011;1243;54.298;10.172;2023-02-20T14:40:56;12.70;;;5.23;;
2462;SDS011;1243;54.298;10.172;2023-02-20T14:43:24;14.93;;;4.33;;
2462;SDS011;1243;54.298;10.172;2023-02-20T14:46:25;8.83;;;4.37;;
2462;SDS011;1243;54.298;10.172;2023-02-20T14:48:48;9.43;;;3.90;;
2462;SDS011;1243;54.298;10.172;2023-02-20T14:51:21;12.47;;;4.73;;
2462;SDS011;1243;54.298;10.172;2023-02-20T14:54:02;7.43;;;3.10;;
2462;SDS011;1243;54.298;10.172;2023-02-20T14:56:37;14.70;;;3.37;;
2462;SDS011;1243;54.298;10.172;2023-02-20T15:01:50;16.27;;;4.70;;
2462;SDS011;1243;54.298;10.172;2023-02-20T15:04:18;15.60;;;3.50;;
2462;SDS011;1243;54.298;10.172;2023-02-20T15:06:46;10.20;;;3.37;;
2462;SDS011;1243;54.298;10.172;2023-02-20T15:09:13;11.70;;;5.63;;
2462;SDS011;1243;54.298;10.172;2023-02-20T15:11:50;9.50;;;5.10;;
2462;SDS011;1243;54.298;10.172;2023-02-20T15:14:27;10.13;;;3.30;;
2462;SDS011;1243;54.298;10.172;2023-02-20T15:19:37;5.53;;;3.43;;
2462;SDS011;1243;54.298;10.172;2023-02-20T15:22:04;13.67;;;3.20;;
2462;SDS011;1243;54.298;10.172;2023-02-20T15:24:45;5.47;;;3.10;;
2462;SDS011;1243;54.298;10.172;2023-02-20T15:27:21;4.60;;;3.90;;
2462;SDS011;1243;54.298;10.172;2023-02-20T15:30:08;5.87;;;3.50;;
2462;SDS011;1243;54.298;10.172;2023-02-20T15:32:41;6.67;;;4.77;;
2462;SDS011;1243;54.298;10.172;2023-02-20T15:35:15;12.03;;;4.20;;
2462;SDS011;1243;54.298;10.172;2023-02-20T15:37:44;9.60;;;3.20;;
2462;SDS011;1243;54.298;10.172;2023-02-20T15:40:19;9.27;;;4.03;;
2462;SDS011;1243;54.298;10.172;2023-02-20T15:42:45;20.93;;;4.43;;
2462;SDS011;1243;54.298;10.172;2023-02-20T15:45:12;4.63;;;2.70;;
2462;SDS011;1243;54.298;10.172;2023-02-20T15:47:38;10.70;;;3.90;;
2462;SDS011;1243;54.298;10.172;2023-02-20T15:50:04;10.73;;;4.33;;
2462;SDS011;1243;54.298;10.172;2023-02-20T15:52:30;15.67;;;4.00;;
2462;SDS011;1243;54.298;10.172;2023-02-20T15:54:56;11.73;;;4.03;;
2462;SDS011;1243;54.298;10.172;2023-02-20T15:57:23;4.87;;;2.93;;
2462;SDS011;1243;54.298;10.172;2023-02-20T15:59:49;12.37;;;4.37;;
2462;SDS011;1243;54.298;10.172;2023-02-20T16:02:18;12.87;;;4.27;;
2462;SDS011;1243;54.298;10.172;2023-02-20T16:04:47;9.83;;;5.03;;
2462;SDS011;1243;54.298;10.172;2023-02-20T16:07:14;12.97;;;3.87;;
2462;SDS011;1243;54.298;10.172;2023-02-20T16:09:42;10.67;;;4.10;;
2462;SDS011;1243;54.298;10.172;2023-02-20T16:12:15;12.90;;;5.10;;
2462;SDS011;1243;54.298;10.172;2023-02-20T16:14:50;11.50;;;3.77;;
2462;SDS011;1243;54.298;10.172;2023-02-20T16:17:27;9.00;;;3.70;;
2462;SDS011;1243;54.298;10.172;2023-02-20T16:19:56;10.30;;;3.90;;
2462;SDS011;1243;54.298;10.172;2023-02-20T16:22:21;17.80;;;3.60;;
2462;SDS011;1243;54.298;10.172;2023-02-20T16:24:47;9.07;;;3.67;;
2462;SDS011;1243;54.298;10.172;2023-02-20T16:27:21;8.13;;;4.10;;
2462;SDS011;1243;54.298;10.172;2023-02-20T16:29:52;8.60;;;3.87;;
2462;SDS011;1243;54.298;10.172;2023-02-20T16:32:23;13.10;;;4.77;;
2462;SDS011;1243;54.298;10.172;2023-02-20T16:34:54;8.70;;;3.90;;
2462;SDS011;1243;54.298;10.172;2023-02-20T16:37:21;13.40;;;4.33;;
2462;SDS011;1243;54.298;10.172;2023-02-20T16:39:47;11.57;;;4.67;;
2462;SDS011;1243;54.298;10.172;2023-02-20T16:42:23;15.27;;;5.77;;
2462;SDS011;1243;54.298;10.172;2023-02-20T16:44:52;14.47;;;4.33;;
2462;SDS011;1243;54.298;10.172;2023-02-20T16:47:23;11.17;;;3.77;;
2462;SDS011;1243;54.298;10.172;2023-02-20T16:49:51;9.90;;;4.80;;
2462;SDS011;1243;54.298;10.172;2023-02-20T16:52:22;20.30;;;5.00;;
2462;SDS011;1243;54.298;10.172;2023-02-20T16:55:02;27.67;;;5.80;;
2462;SDS011;1243;54.298;10.172;2023-02-20T16:57:29;12.20;;;3.67;;
2462;SDS011;1243;54.298;10.172;2023-02-20T16:59:56;16.57;;;3.90;;
2462;SDS011;1243;54.298;10.172;2023-02-20T17:02:27;9.00;;;4.13;;
2462;SDS011;1243;54.298;10.172;2023-02-20T17:04:58;11.43;;;4.43;;
2462;SDS011;1243;54.298;10.172;2023-02-20T17:07:25;12.97;;;4.13;;
2462;SDS011;1243;54.298;10.172;2023-02-20T17:09:51;26.40;;;5.13;;
2462;SDS011;1243;54.298;10.172;2023-02-20T17:12:18;11.00;;;4.47;;
2462;SDS011;1243;54.298;10.172;2023-02-20T17:14:45;11.07;;;4.57;;
2462;SDS011;1243;54.298;10.172;2023-02-20T17:17:12;13.97;;;4.53;;
2462;SDS011;1243;54.298;10.172;2023-02-20T17:19:39;12.13;;;4.77;;
2462;SDS011;1243;54.298;10.172;2023-02-20T17:22:06;12.40;;;4.33;;
2462;SDS011;1243;54.298;10.172;2023-02-20T17:24:33;6.73;;;3.47;;
2462;SDS011;1243;54.298;10.172;2023-02-20T17:27:00;9.43;;;4.00;;
2462;SDS011;1243;54.298;10.172;2023-02-20T17:29:26;15.70;;;3.97;;
2462;SDS011;1243;54.298;10.172;2023-02-20T17:31:53;15.10;;;3.77;;
2462;SDS011;1243;54.298;10.172;2023-02-20T17:34:19;9.00;;;3.50;;